Time;durP1;ratioP1;P1;durP2;ratioP2;P2;SDS_P1;SDS_P2;PMS_P1;PMS_P2;Temp;Humidity;BMP_temperature;BMP_pressure;BME280_temperature;BME280_humidity;BME280_pressure;Samples;Min_cycle;Max_cycle;Signal;HPM_P1;HPM_P2
2020/12/13 00:02:11;;;;;;;36.83;19.40;;;4.70;99.90;;;;;;5109626;28;20093;-72
2020/12/13 00:04:38;;;;;;;39.40;20.90;;;4.70;99.90;;;;;;5112868;27;20498;-71
2020/12/13 00:07:08;;;;;;;41.58;20.58;;;4.70;99.90;;;;;;5092814;28;20403;-72
2020/12/13 00:09:35;;;;;;;41.83;20.98;;;4.70;99.90;;;;;;5091202;28;20051;-71
2020/12/13 00:12:03;;;;;;;43.35;21.13;;;4.70;99.90;;;;;;5110075;28;20043;-71
2020/12/13 00:14:30;;;;;;;38.10;20.55;;;4.70;99.90;;;;;;5110016;28;20056;-71
2020/12/13 00:16:57;;;;;;;44.58;21.92;;;4.70;99.90;;;;;;5109742;28;20369;-71
2020/12/13 00:19:27;;;;;;;43.80;22.08;;;4.70;99.90;;;;;;5116967;28;20478;-72
2020/12/13 00:21:56;;;;;;;38.80;20.77;;;4.70;99.90;;;;;;5117005;27;20039;-71
2020/12/13 00:24:27;;;;;;;41.88;21.52;;;4.70;99.90;;;;;;5115724;28;20040;-72
2020/12/13 00:26:53;;;;;;;37.38;20.92;;;4.70;99.90;;;;;;5098772;28;20039;-72
2020/12/13 00:29:20;;;;;;;43.75;22.67;;;4.70;99.90;;;;;;5098803;28;20048;-72
2020/12/13 00:31:50;;;;;;;38.60;20.55;;;4.80;99.90;;;;;;5116371;28;20055;-72
2020/12/13 00:34:17;;;;;;;44.22;22.55;;;4.80;99.90;;;;;;5116881;27;20058;-72
2020/12/13 00:36:43;;;;;;;40.22;21.48;;;4.70;99.90;;;;;;5106169;28;20050;-72
2020/12/13 00:39:10;;;;;;;47.47;23.65;;;4.80;99.90;;;;;;5116860;27;20059;-72
2020/12/13 00:41:36;;;;;;;43.88;23.13;;;4.80;99.90;;;;;;5114591;28;20688;-72
2020/12/13 00:44:03;;;;;;;46.53;23.45;;;4.70;99.90;;;;;;5116519;28;20054;-72
2020/12/13 00:46:29;;;;;;;41.85;22.40;;;4.70;99.90;;;;;;5115795;28;20370;-72
2020/12/13 00:48:56;;;;;;;42.05;23.02;;;4.70;99.90;;;;;;5099012;28;20047;-72
2020/12/13 00:51:24;;;;;;;43.03;22.88;;;4.70;99.90;;;;;;5116335;28;20043;-73
2020/12/13 00:53:51;;;;;;;46.88;23.45;;;4.70;99.90;;;;;;5116642;27;20043;-72
2020/12/13 00:56:17;;;;;;;43.88;22.40;;;4.70;99.90;;;;;;5098388;28;20044;-72
2020/12/13 00:58:44;;;;;;;47.13;22.73;;;4.70;99.90;;;;;;5117054;28;20051;-72
2020/12/13 01:01:10;;;;;;;42.75;23.65;;;4.70;99.90;;;;;;5115273;28;20059;-72
2020/12/13 01:03:37;;;;;;;50.13;23.27;;;4.70;99.90;;;;;;5115391;28;20130;-72
2020/12/13 01:06:03;;;;;;;48.30;23.70;;;4.70;99.90;;;;;;5116783;27;20044;-73
2020/12/13 01:08:30;;;;;;;43.33;20.42;;;4.70;99.90;;;;;;5112353;28;20082;-73
2020/12/13 01:10:57;;;;;;;44.33;21.85;;;4.70;99.90;;;;;;5116629;27;20052;-73
2020/12/13 01:13:24;;;;;;;48.38;22.55;;;4.70;99.90;;;;;;5116099;28;20055;-72
2020/12/13 01:15:53;;;;;;;43.28;22.13;;;4.70;99.90;;;;;;5116424;28;20054;-72
2020/12/13 01:18:20;;;;;;;50.10;23.75;;;4.70;99.90;;;;;;5117061;28;20058;-72
2020/12/13 01:20:47;;;;;;;42.78;23.00;;;4.70;99.90;;;;;;5097633;28;20051;-73
2020/12/13 01:23:13;;;;;;;46.95;23.00;;;4.80;99.90;;;;;;5116267;28;20043;-72
2020/12/13 01:25:40;;;;;;;50.15;23.13;;;4.80;99.90;;;;;;5115748;28;20043;-72
2020/12/13 01:28:06;;;;;;;50.00;22.58;;;4.80;99.90;;;;;;5115664;28;20495;-73
2020/12/13 01:30:33;;;;;;;44.40;21.98;;;4.80;99.90;;;;;;5111825;28;20512;-73
2020/12/13 01:32:59;;;;;;;46.83;23.88;;;4.80;99.90;;;;;;5111452;28;20063;-73
2020/12/13 01:35:27;;;;;;;43.58;21.90;;;4.80;99.90;;;;;;5113273;28;20043;-72
2020/12/13 01:37:54;;;;;;;46.75;23.23;;;4.80;99.90;;;;;;5112772;28;20512;-73
2020/12/13 01:40:20;;;;;;;47.03;23.38;;;4.80;99.90;;;;;;5111994;28;20055;-73
2020/12/13 01:42:47;;;;;;;46.33;22.48;;;4.70;99.90;;;;;;5112677;28;20060;-73
2020/12/13 01:45:21;;;;;;;45.35;21.95;;;4.80;99.90;;;;;;5103186;28;20055;-73
2020/12/13 01:47:50;;;;;;;45.33;22.05;;;4.80;99.90;;;;;;5111643;28;20057;-72
2020/12/13 01:50:39;;;;;;;43.33;22.02;;;4.80;99.90;;;;;;5096831;28;20510;-72
2020/12/13 01:53:15;;;;;;;42.78;21.10;;;4.80;99.90;;;;;;5113082;27;20062;-72
2020/12/13 01:55:44;;;;;;;50.47;23.80;;;4.80;99.90;;;;;;5112293;28;20047;-72
2020/12/13 01:58:24;;;;;;;54.22;23.98;;;4.80;99.90;;;;;;5112856;28;20066;-72
2020/12/13 02:00:54;;;;;;;50.05;23.90;;;4.80;99.90;;;;;;5111213;28;20402;-73
2020/12/13 02:03:28;;;;;;;53.15;23.15;;;4.80;99.90;;;;;;5112178;28;20054;-72
2020/12/13 02:06:01;;;;;;;45.30;23.38;;;4.80;99.90;;;;;;5118522;27;20075;-72
2020/12/13 02:08:39;;;;;;;46.55;22.02;;;4.80;99.90;;;;;;5103884;28;20044;-72
2020/12/13 02:11:07;;;;;;;49.65;24.95;;;4.80;99.90;;;;;;5112183;28;20471;-72
2020/12/13 02:13:35;;;;;;;55.47;24.20;;;4.80;99.90;;;;;;5112218;28;20158;-71
2020/12/13 02:16:02;;;;;;;52.85;23.50;;;4.80;99.90;;;;;;5112085;28;20055;-72
2020/12/13 02:18:28;;;;;;;54.35;25.65;;;4.80;99.90;;;;;;5112445;28;20066;-72
2020/12/13 02:20:56;;;;;;;47.63;22.15;;;4.80;99.90;;;;;;5079601;28;20048;-72
2020/12/13 02:23:23;;;;;;;49.33;23.63;;;4.80;99.90;;;;;;5112482;28;20046;-72
2020/12/13 02:25:51;;;;;;;52.95;22.75;;;4.80;99.90;;;;;;5110242;28;20405;-72
2020/12/13 02:28:18;;;;;;;54.13;22.73;;;4.80;99.90;;;;;;5112406;28;20047;-72
2020/12/13 02:30:45;;;;;;;57.75;24.40;;;4.80;99.90;;;;;;5111064;28;20039;-72
2020/12/13 02:33:12;;;;;;;59.15;23.92;;;4.80;99.90;;;;;;5112382;28;20113;-73
2020/12/13 02:35:38;;;;;;;51.55;23.08;;;4.80;99.90;;;;;;5110429;28;20048;-72
2020/12/13 02:38:05;;;;;;;53.03;22.75;;;4.70;99.90;;;;;;5112092;28;20043;-73
2020/12/13 02:40:31;;;;;;;57.20;23.42;;;4.70;99.90;;;;;;5110722;28;20073;-73
2020/12/13 02:42:57;;;;;;;58.50;24.17;;;4.70;99.90;;;;;;5111694;28;20039;-72
2020/12/13 02:45:25;;;;;;;54.63;23.20;;;4.70;99.90;;;;;;5112068;28;20123;-72
2020/12/13 02:47:51;;;;;;;48.70;22.83;;;4.80;99.90;;;;;;5111253;28;20044;-73
2020/12/13 02:50:18;;;;;;;54.28;23.23;;;4.80;99.90;;;;;;5111862;28;20047;-73
2020/12/13 02:52:44;;;;;;;47.65;21.00;;;4.80;99.90;;;;;;5110355;28;20054;-73
2020/12/13 02:55:11;;;;;;;48.58;21.70;;;4.80;99.90;;;;;;5111630;28;20055;-73
2020/12/13 02:57:40;;;;;;;49.03;21.77;;;4.70;99.90;;;;;;5111514;28;20047;-72
2020/12/13 03:00:08;;;;;;;52.10;23.75;;;4.80;99.90;;;;;;5111641;28;20054;-73
2020/12/13 03:02:35;;;;;;;55.28;23.70;;;4.80;99.90;;;;;;5110960;28;20055;-72
2020/12/13 03:05:01;;;;;;;54.70;24.13;;;4.80;99.90;;;;;;5111391;28;20043;-73
2020/12/13 03:07:28;;;;;;;49.50;22.55;;;4.80;99.90;;;;;;5111907;28;20048;-73
2020/12/13 03:09:54;;;;;;;55.90;24.15;;;4.80;99.90;;;;;;5111235;28;20433;-73
2020/12/13 03:12:21;;;;;;;53.63;24.80;;;4.90;99.90;;;;;;5111147;28;20047;-73
2020/12/13 03:14:47;;;;;;;59.20;24.90;;;4.90;99.90;;;;;;5111376;28;20051;-72
2020/12/13 03:17:13;;;;;;;56.53;25.40;;;4.90;99.90;;;;;;5110295;28;20044;-73
2020/12/13 03:19:40;;;;;;;62.17;25.63;;;4.90;99.90;;;;;;5110492;28;20134;-72
2020/12/13 03:22:06;;;;;;;60.05;24.58;;;4.90;99.90;;;;;;5109761;28;20591;-72
2020/12/13 03:24:33;;;;;;;50.22;23.10;;;4.90;99.90;;;;;;5111222;28;20046;-73
2020/12/13 03:26:59;;;;;;;71.70;27.35;;;4.90;99.90;;;;;;5110773;28;20441;-73
2020/12/13 03:29:26;;;;;;;62.63;26.45;;;4.90;99.90;;;;;;5093365;28;20393;-72
2020/12/13 03:31:52;;;;;;;56.90;24.13;;;4.90;99.90;;;;;;5109259;28;20069;-73
2020/12/13 03:34:19;;;;;;;60.65;25.42;;;4.90;99.90;;;;;;5110848;28;20500;-73
2020/12/13 03:36:46;;;;;;;54.15;23.85;;;4.90;99.90;;;;;;5109450;28;20052;-72
2020/12/13 03:39:12;;;;;;;51.15;24.80;;;4.90;99.90;;;;;;5111645;28;20417;-73
2020/12/13 03:41:39;;;;;;;56.47;25.27;;;4.90;99.90;;;;;;5108831;28;20044;-72
2020/12/13 03:44:05;;;;;;;57.72;26.63;;;4.90;99.90;;;;;;5111113;28;20052;-73
2020/12/13 03:46:32;;;;;;;57.70;24.55;;;4.90;99.90;;;;;;5109335;28;20044;-73
2020/12/13 03:48:58;;;;;;;53.90;24.08;;;4.90;99.90;;;;;;5110084;28;20053;-73
2020/12/13 03:51:25;;;;;;;55.70;24.02;;;4.90;99.90;;;;;;5110152;28;20100;-72
2020/12/13 03:53:52;;;;;;;52.17;23.45;;;4.90;99.90;;;;;;5108689;28;20047;-72
2020/12/13 03:56:18;;;;;;;47.95;22.95;;;4.90;99.90;;;;;;5109952;28;20058;-72
2020/12/13 03:58:45;;;;;;;51.03;23.27;;;4.90;99.90;;;;;;5109115;28;20112;-71
2020/12/13 04:01:11;;;;;;;49.28;23.17;;;5.00;99.90;;;;;;5110249;28;20050;-71
2020/12/13 04:03:38;;;;;;;44.83;22.40;;;5.00;99.90;;;;;;5110205;28;20481;-71
2020/12/13 04:06:04;;;;;;;53.63;23.40;;;5.00;99.90;;;;;;5109903;28;20035;-72
2020/12/13 04:08:31;;;;;;;49.03;24.52;;;5.00;99.90;;;;;;5110037;28;20680;-72
2020/12/13 04:10:57;;;;;;;47.15;22.60;;;5.00;99.90;;;;;;5108677;28;20051;-71
2020/12/13 04:13:25;;;;;;;45.05;22.45;;;5.00;99.90;;;;;;5109405;28;20123;-71
2020/12/13 04:15:52;;;;;;;43.90;20.40;;;5.10;99.90;;;;;;5110140;28;20063;-71
2020/12/13 04:18:18;;;;;;;37.75;19.67;;;5.10;99.90;;;;;;5110716;28;20051;-71
2020/12/13 04:20:45;;;;;;;45.15;22.17;;;5.10;99.90;;;;;;5110586;28;20795;-73
2020/12/13 04:23:11;;;;;;;41.03;19.98;;;5.10;99.90;;;;;;5109452;28;20052;-72
2020/12/13 04:25:38;;;;;;;42.22;21.00;;;5.10;99.90;;;;;;5109526;28;20063;-71
2020/12/13 04:28:04;;;;;;;42.90;20.67;;;5.10;99.90;;;;;;5109881;28;20051;-72
2020/12/13 04:30:31;;;;;;;45.53;21.40;;;5.10;99.90;;;;;;5110946;28;20047;-72
2020/12/13 04:32:57;;;;;;;39.03;20.02;;;5.10;99.90;;;;;;5109839;28;20061;-72
2020/12/13 04:35:24;;;;;;;42.45;20.63;;;5.10;99.90;;;;;;5110834;28;20426;-72
2020/12/13 04:37:51;;;;;;;45.50;21.73;;;5.10;99.90;;;;;;5110623;28;20135;-72
2020/12/13 04:40:17;;;;;;;41.38;21.55;;;5.10;99.90;;;;;;5109671;28;20081;-72
2020/12/13 04:42:45;;;;;;;43.10;21.55;;;5.10;99.90;;;;;;5109352;28;20174;-71
2020/12/13 04:45:11;;;;;;;42.97;20.70;;;5.20;99.90;;;;;;5109899;28;20055;-72
2020/12/13 04:48:11;;;;;;;39.63;20.52;;;5.10;99.90;;;;;;5109265;28;20409;-71
2020/12/13 04:50:39;;;;;;;43.75;21.58;;;5.10;99.90;;;;;;5104758;28;20464;-71
2020/12/13 04:53:10;;;;;;;44.78;21.00;;;5.10;99.90;;;;;;5108739;28;20755;-72
2020/12/13 04:56:05;;;;;;;42.17;20.50;;;5.10;99.90;;;;;;5109565;28;20064;-72
2020/12/13 04:58:31;;;;;;;44.33;21.33;;;5.20;99.90;;;;;;5107096;28;20043;-72
2020/12/13 05:01:00;;;;;;;43.90;21.05;;;5.10;99.90;;;;;;5109142;28;20055;-72
2020/12/13 05:03:27;;;;;;;44.42;20.25;;;5.10;99.90;;;;;;5110299;28;20047;-72
2020/12/13 05:05:58;;;;;;;42.78;20.80;;;5.10;99.90;;;;;;5111533;28;20044;-71
2020/12/13 05:08:25;;;;;;;41.30;21.42;;;5.10;99.90;;;;;;5112751;28;20068;-72
2020/12/13 05:10:52;;;;;;;44.78;21.08;;;5.20;99.90;;;;;;5112478;28;20039;-71
2020/12/13 05:13:18;;;;;;;43.33;20.95;;;5.20;99.90;;;;;;5112146;28;20055;-72
2020/12/13 05:15:46;;;;;;;42.20;20.85;;;5.20;99.90;;;;;;5113174;28;20585;-71
2020/12/13 05:18:13;;;;;;;43.17;20.35;;;5.10;99.90;;;;;;5113028;28;20134;-72
2020/12/13 05:20:40;;;;;;;39.53;19.58;;;5.20;99.90;;;;;;5113547;28;20040;-71
2020/12/13 05:23:07;;;;;;;39.17;18.98;;;5.20;99.90;;;;;;5111073;28;20056;-72
2020/12/13 05:25:38;;;;;;;40.55;20.65;;;5.20;99.90;;;;;;5113319;28;20474;-72
2020/12/13 05:28:09;;;;;;;40.22;19.80;;;5.20;99.90;;;;;;5101577;28;20045;-72
2020/12/13 05:30:41;;;;;;;44.33;21.80;;;5.20;99.90;;;;;;5112293;28;20044;-71
2020/12/13 05:33:18;;;;;;;40.65;19.95;;;5.20;99.90;;;;;;5112981;28;20062;-71
2020/12/13 05:35:45;;;;;;;39.70;19.85;;;5.20;99.90;;;;;;5110774;28;20054;-71
2020/12/13 05:38:13;;;;;;;39.88;19.85;;;5.20;99.90;;;;;;5094851;28;20048;-72
2020/12/13 05:40:40;;;;;;;40.55;20.02;;;5.20;99.90;;;;;;5111179;28;20047;-71
2020/12/13 05:43:15;;;;;;;37.75;18.52;;;5.20;99.90;;;;;;5113142;28;20056;-72
2020/12/13 05:48:35;;;;;;;41.70;19.02;;;5.30;99.90;;;;;;5112202;28;20051;-71
2020/12/13 05:53:33;;;;;;;42.20;20.75;;;5.30;99.90;;;;;;5112203;28;20557;-71
2020/12/13 05:56:22;;;;;;;37.53;18.98;;;5.40;99.90;;;;;;5112216;28;20044;-72
2020/12/13 05:58:50;;;;;;;33.75;17.77;;;5.40;99.90;;;;;;5110939;28;20044;-72
2020/12/13 06:01:22;;;;;;;37.65;19.70;;;5.40;99.90;;;;;;5110844;28;20054;-71
2020/12/13 06:03:54;;;;;;;32.95;17.92;;;5.40;99.90;;;;;;5093922;28;20671;-72
2020/12/13 06:06:23;;;;;;;37.22;18.45;;;5.40;99.90;;;;;;5111910;28;20752;-73
2020/12/13 06:08:50;;;;;;;35.80;18.25;;;5.40;99.90;;;;;;5112201;28;20048;-73
2020/12/13 06:11:20;;;;;;;33.95;18.42;;;5.40;99.90;;;;;;5110646;28;20080;-72
2020/12/13 06:13:53;;;;;;;33.72;17.90;;;5.40;99.90;;;;;;5112599;28;20582;-71
2020/12/13 06:16:22;;;;;;;38.85;19.52;;;5.40;99.90;;;;;;5111402;28;20048;-72
2020/12/13 06:18:49;;;;;;;35.67;16.70;;;5.50;99.90;;;;;;5111554;28;20048;-71
2020/12/13 06:21:17;;;;;;;37.88;17.95;;;5.50;99.90;;;;;;5111991;28;20058;-71
2020/12/13 06:23:47;;;;;;;39.28;17.20;;;5.50;99.90;;;;;;5110375;28;20050;-72
2020/12/13 06:26:14;;;;;;;37.28;17.08;;;5.50;99.90;;;;;;5111419;28;20383;-72
2020/12/13 06:28:41;;;;;;;38.83;18.38;;;5.50;99.90;;;;;;5111568;28;20047;-72
2020/12/13 06:31:08;;;;;;;33.15;16.80;;;5.50;99.90;;;;;;5092235;28;20505;-72
2020/12/13 06:33:41;;;;;;;35.88;17.65;;;5.50;99.90;;;;;;5110610;28;20097;-72
2020/12/13 06:36:08;;;;;;;38.72;17.08;;;5.50;99.90;;;;;;5111592;28;20106;-72
2020/12/13 06:38:36;;;;;;;39.92;18.02;;;5.50;99.90;;;;;;5111170;28;20131;-73
2020/12/13 06:41:10;;;;;;;36.10;18.25;;;5.60;99.90;;;;;;5110827;28;20061;-73
2020/12/13 06:43:55;;;;;;;33.78;17.55;;;5.60;99.90;;;;;;5112172;28;20397;-71
2020/12/13 06:46:24;;;;;;;37.42;18.23;;;5.60;99.90;;;;;;5111839;28;20083;-72
2020/12/13 06:48:51;;;;;;;40.30;19.90;;;5.60;99.90;;;;;;5093313;28;20108;-72
2020/12/13 06:51:29;;;;;;;41.70;18.33;;;5.60;99.90;;;;;;5111189;28;20043;-72
2020/12/13 06:53:56;;;;;;;39.22;18.02;;;5.60;99.90;;;;;;5111553;28;20050;-72
2020/12/13 06:56:24;;;;;;;39.95;19.20;;;5.70;99.90;;;;;;5110543;28;20154;-73
2020/12/13 06:58:58;;;;;;;36.40;17.70;;;5.70;99.90;;;;;;5109829;28;20050;-72
2020/12/13 07:01:29;;;;;;;42.53;18.92;;;5.60;99.90;;;;;;5109211;28;20116;-72
2020/12/13 07:04:00;;;;;;;42.05;19.90;;;5.70;99.90;;;;;;5111074;28;20052;-74
2020/12/13 07:07:21;;;;;;;49.85;20.48;;;5.60;99.90;;;;;;5110141;28;20046;-72
2020/12/13 07:09:48;;;;;;;47.47;20.88;;;5.60;99.90;;;;;;5107403;28;20452;-72
2020/12/13 07:12:16;;;;;;;39.38;18.67;;;5.60;99.90;;;;;;5110794;28;20053;-71
2020/12/13 07:14:44;;;;;;;47.28;20.98;;;5.60;99.90;;;;;;5111848;28;20043;-71
2020/12/13 07:17:18;;;;;;;41.63;19.73;;;5.70;99.90;;;;;;5111858;28;20055;-72
2020/12/13 07:19:47;;;;;;;40.47;19.20;;;5.70;99.90;;;;;;5110294;28;20063;-71
2020/12/13 07:22:16;;;;;;;43.70;19.80;;;5.70;99.90;;;;;;5110319;28;20157;-71
2020/12/13 07:24:43;;;;;;;43.40;18.85;;;5.60;99.90;;;;;;5110058;28;20050;-71
2020/12/13 07:27:10;;;;;;;41.63;19.77;;;5.70;99.90;;;;;;5109910;28;20055;-72
2020/12/13 07:29:38;;;;;;;38.08;19.95;;;5.60;99.90;;;;;;5109788;28;20454;-72
2020/12/13 07:32:05;;;;;;;35.00;17.25;;;5.60;99.90;;;;;;5109070;28;20047;-72
2020/12/13 07:34:33;;;;;;;38.33;17.92;;;5.60;99.90;;;;;;5110545;28;20047;-71
2020/12/13 07:37:00;;;;;;;40.78;18.42;;;5.60;99.90;;;;;;5110558;28;20047;-71
2020/12/13 07:39:29;;;;;;;37.50;17.95;;;5.50;99.90;;;;;;5110626;28;20052;-71
2020/12/13 07:41:56;;;;;;;34.30;16.25;;;5.60;99.90;;;;;;5106047;28;20143;-71
2020/12/13 07:44:23;;;;;;;34.28;17.70;;;5.60;99.90;;;;;;5109799;28;20058;-71
2020/12/13 07:46:49;;;;;;;34.25;17.40;;;5.60;99.90;;;;;;5091012;28;20040;-71
2020/12/13 07:49:20;;;;;;;37.13;17.77;;;5.60;99.90;;;;;;5107334;28;20071;-74
2020/12/13 07:51:51;;;;;;;32.05;16.58;;;5.60;99.90;;;;;;5109060;28;20047;-73
2020/12/13 07:54:26;;;;;;;33.60;15.85;;;5.60;99.90;;;;;;5108833;28;20040;-72
2020/12/13 07:56:57;;;;;;;35.00;16.45;;;5.70;99.90;;;;;;5108263;28;20394;-71
2020/12/13 07:59:28;;;;;;;34.10;16.73;;;5.70;99.90;;;;;;5107565;28;20529;-71
2020/12/13 08:01:56;;;;;;;35.83;18.00;;;5.70;99.90;;;;;;5091487;28;20056;-71
2020/12/13 08:04:31;;;;;;;34.28;16.48;;;5.80;99.90;;;;;;5109180;28;20423;-73
2020/12/13 08:06:59;;;;;;;35.25;16.33;;;5.80;99.90;;;;;;5109575;28;20044;-73
2020/12/13 08:09:26;;;;;;;31.90;15.88;;;5.90;99.90;;;;;;5108974;28;20063;-74
2020/12/13 08:11:53;;;;;;;33.22;16.92;;;5.90;99.90;;;;;;5109598;28;20409;-71
2020/12/13 08:14:22;;;;;;;32.75;16.83;;;6.00;99.90;;;;;;5108529;28;20040;-71
2020/12/13 08:16:56;;;;;;;34.83;16.73;;;6.00;99.90;;;;;;5109522;28;20044;-71
2020/12/13 08:19:41;;;;;;;28.73;15.90;;;6.10;99.90;;;;;;5105394;28;20054;-71
2020/12/13 08:22:23;;;;;;;31.80;15.23;;;6.10;99.90;;;;;;5105688;28;20039;-70
2020/12/13 08:24:58;;;;;;;38.78;18.30;;;6.20;99.90;;;;;;5103905;28;20051;-72
2020/12/13 08:27:29;;;;;;;36.58;19.30;;;6.20;99.90;;;;;;5109381;28;20047;-72
2020/12/13 08:29:57;;;;;;;31.60;17.00;;;6.30;99.90;;;;;;5108510;28;20052;-71
2020/12/13 08:32:32;;;;;;;35.50;18.48;;;6.20;99.90;;;;;;5106357;28;20506;-72
2020/12/13 08:35:12;;;;;;;34.05;16.48;;;6.20;99.90;;;;;;5109060;28;20056;-72
2020/12/13 08:37:40;;;;;;;30.38;16.90;;;6.20;99.90;;;;;;5109477;28;20396;-74
2020/12/13 08:40:40;;;;;;;32.08;16.83;;;6.30;99.90;;;;;;5108888;28;20042;-73
2020/12/13 08:43:10;;;;;;;38.67;18.25;;;6.30;99.90;;;;;;5113955;28;20066;-76
2020/12/13 08:45:37;;;;;;;35.35;18.35;;;6.30;99.90;;;;;;5113286;28;20044;-72
2020/12/13 08:48:08;;;;;;;38.13;18.77;;;6.30;99.90;;;;;;5111022;28;20098;-72
2020/12/13 08:50:40;;;;;;;43.15;19.38;;;6.30;99.90;;;;;;5112909;28;20481;-73
2020/12/13 08:53:23;;;;;;;35.10;18.65;;;6.30;99.90;;;;;;5080774;28;20047;-74
2020/12/13 08:56:09;;;;;;;37.80;19.27;;;6.30;99.90;;;;;;5113274;28;20051;-74
2020/12/13 08:58:52;;;;;;;34.85;17.40;;;6.30;99.90;;;;;;5111790;28;20153;-74
2020/12/13 09:01:25;;;;;;;39.67;18.42;;;6.30;99.90;;;;;;5112927;28;20055;-72
2020/12/13 09:03:52;;;;;;;35.45;17.17;;;6.30;99.90;;;;;;5113673;28;20879;-72
2020/12/13 09:06:30;;;;;;;35.65;17.73;;;6.30;99.90;;;;;;5095326;28;20051;-73
2020/12/13 09:09:13;;;;;;;29.63;16.20;;;6.40;99.90;;;;;;5113075;28;20044;-72
2020/12/13 09:11:42;;;;;;;32.78;16.13;;;6.40;99.90;;;;;;5107745;28;20063;-73
2020/12/13 09:14:08;;;;;;;31.10;17.13;;;6.40;99.90;;;;;;5093875;28;20112;-72
2020/12/13 09:16:36;;;;;;;31.65;16.33;;;6.40;99.90;;;;;;5111951;28;20135;-71
2020/12/13 09:19:02;;;;;;;27.75;14.75;;;6.50;99.90;;;;;;5111502;28;20124;-72
2020/12/13 09:21:48;;;;;;;29.63;15.85;;;6.50;99.90;;;;;;5093941;28;20070;-76
2020/12/13 09:24:17;;;;;;;27.73;13.57;;;6.60;99.90;;;;;;5111899;28;20485;-73
2020/12/13 09:27:19;;;;;;;33.22;17.45;;;6.60;99.90;;;;;;5112732;28;20048;-72
2020/12/13 09:29:47;;;;;;;29.55;14.98;;;6.60;99.90;;;;;;5010939;28;20052;-71
2020/12/13 09:32:15;;;;;;;24.88;14.48;;;6.70;99.90;;;;;;5023665;28;20072;-72
2020/12/13 09:34:43;;;;;;;27.52;13.73;;;6.70;99.90;;;;;;5009812;28;20050;-70
2020/12/13 09:37:11;;;;;;;29.35;15.52;;;6.70;99.90;;;;;;5009816;28;20062;-73
2020/12/13 09:39:38;;;;;;;31.00;14.63;;;6.70;99.90;;;;;;5009474;28;20054;-73
2020/12/13 09:42:08;;;;;;;25.83;14.13;;;6.70;99.90;;;;;;5008029;28;20464;-72
2020/12/13 09:44:36;;;;;;;25.40;14.05;;;6.70;99.90;;;;;;5009633;28;20046;-72
2020/12/13 09:47:03;;;;;;;24.40;14.18;;;6.70;99.90;;;;;;5008557;28;20081;-71
2020/12/13 09:49:30;;;;;;;28.02;14.70;;;6.80;99.90;;;;;;5009275;28;20049;-73
2020/12/13 09:52:04;;;;;;;26.83;14.77;;;6.80;99.90;;;;;;5008144;28;20201;-74
2020/12/13 09:54:30;;;;;;;26.75;14.02;;;6.80;99.90;;;;;;5009134;28;20400;-72
2020/12/13 09:56:57;;;;;;;30.20;15.32;;;6.80;99.90;;;;;;5009275;28;20050;-73
2020/12/13 09:59:26;;;;;;;26.45;13.70;;;6.80;99.90;;;;;;5009707;28;20053;-72
2020/12/13 10:01:52;;;;;;;24.98;13.88;;;6.80;99.90;;;;;;5008535;28;20042;-73
2020/12/13 10:04:23;;;;;;;29.30;14.77;;;6.80;99.90;;;;;;5084888;28;20162;-71
2020/12/13 10:09:19;;;;;;;25.02;13.43;;;6.80;99.90;;;;;;5110890;28;20047;-74
2020/12/13 10:11:46;;;;;;;29.70;14.90;;;6.80;99.90;;;;;;5111015;28;20435;-71
2020/12/13 10:14:14;;;;;;;26.15;14.63;;;6.90;99.90;;;;;;5109950;28;20050;-72
2020/12/13 10:16:43;;;;;;;32.03;16.13;;;6.90;99.90;;;;;;5112228;28;20051;-71
2020/12/13 10:19:10;;;;;;;30.60;16.45;;;6.90;99.90;;;;;;5112513;28;20089;-72
2020/12/13 10:21:37;;;;;;;28.20;14.60;;;7.00;99.90;;;;;;5093641;28;20051;-71
2020/12/13 10:24:05;;;;;;;27.50;14.63;;;7.10;99.90;;;;;;5111864;28;20043;-72
2020/12/13 10:26:35;;;;;;;28.63;14.95;;;7.10;99.90;;;;;;5112161;28;20048;-72
2020/12/13 10:29:03;;;;;;;27.40;14.93;;;7.20;99.90;;;;;;5118007;27;20413;-72
2020/12/13 10:31:35;;;;;;;29.33;16.73;;;7.20;99.90;;;;;;5111436;28;20055;-72
2020/12/13 10:34:06;;;;;;;28.33;15.25;;;7.30;99.90;;;;;;5111888;28;20442;-71
2020/12/13 10:36:37;;;;;;;31.70;16.17;;;7.20;99.90;;;;;;5111442;28;20039;-73
2020/12/13 10:39:06;;;;;;;26.90;15.25;;;7.20;99.90;;;;;;5112381;28;20044;-71
2020/12/13 10:41:33;;;;;;;29.23;16.58;;;7.30;99.90;;;;;;5110053;28;20043;-71
2020/12/13 10:44:00;;;;;;;32.38;15.85;;;7.30;99.90;;;;;;5110585;28;20059;-71
2020/12/13 10:46:26;;;;;;;28.52;15.32;;;7.30;99.90;;;;;;5110894;28;20050;-71
2020/12/13 10:48:53;;;;;;;29.50;15.98;;;7.40;99.90;;;;;;5112232;28;20075;-72
2020/12/13 10:51:20;;;;;;;30.58;16.42;;;7.40;99.90;;;;;;5111402;28;20059;-71
2020/12/13 10:53:47;;;;;;;28.70;16.10;;;7.40;99.90;;;;;;5110796;28;20379;-71
2020/12/13 10:56:15;;;;;;;28.83;15.35;;;7.40;99.90;;;;;;5110433;28;20121;-71
2020/12/13 10:58:43;;;;;;;30.60;15.45;;;7.50;99.90;;;;;;5111657;28;20386;-73
2020/12/13 11:01:13;;;;;;;30.63;15.40;;;7.50;99.90;;;;;;5110622;28;20051;-73
2020/12/13 11:03:40;;;;;;;25.73;13.93;;;7.60;99.90;;;;;;5108320;28;20043;-72
2020/12/13 11:06:10;;;;;;;25.42;13.23;;;7.70;99.90;;;;;;5111493;28;20456;-72
2020/12/13 11:08:37;;;;;;;31.08;15.95;;;7.80;99.90;;;;;;5111346;28;20043;-71
2020/12/13 11:11:05;;;;;;;24.27;13.50;;;7.90;99.90;;;;;;5110717;28;20132;-71
2020/12/13 11:13:33;;;;;;;30.17;15.20;;;8.00;99.90;;;;;;5110944;28;20143;-73
2020/12/13 11:15:59;;;;;;;27.77;15.68;;;8.00;99.90;;;;;;5111167;28;20055;-72
2020/12/13 11:18:30;;;;;;;26.70;15.35;;;8.00;99.90;;;;;;5111022;28;20053;-73
2020/12/13 11:20:58;;;;;;;23.08;13.43;;;8.00;99.90;;;;;;5093038;28;20047;-71
2020/12/13 11:23:25;;;;;;;27.45;15.25;;;8.00;99.90;;;;;;5111326;28;20047;-72
2020/12/13 11:25:51;;;;;;;32.15;17.17;;;8.00;99.90;;;;;;5109980;28;20059;-71
2020/12/13 11:28:18;;;;;;;29.27;15.55;;;8.00;99.90;;;;;;5110017;28;20048;-71
2020/12/13 11:30:44;;;;;;;31.63;16.58;;;8.00;99.90;;;;;;5109175;28;20403;-73
2020/12/13 11:33:11;;;;;;;29.08;16.55;;;7.90;99.90;;;;;;5092817;28;20458;-73
2020/12/13 11:35:37;;;;;;;28.00;15.20;;;7.90;99.90;;;;;;5110622;28;20058;-73
2020/12/13 11:38:04;;;;;;;29.65;15.73;;;7.80;99.90;;;;;;5092753;28;20066;-73
2020/12/13 11:40:31;;;;;;;29.17;15.48;;;7.70;99.90;;;;;;5095646;28;20048;-73
2020/12/13 11:42:59;;;;;;;28.85;15.70;;;7.70;99.90;;;;;;5109660;28;20051;-75
2020/12/13 11:45:26;;;;;;;27.35;15.82;;;7.70;99.90;;;;;;5110516;28;20470;-73
2020/12/13 11:47:53;;;;;;;28.00;14.90;;;7.70;99.90;;;;;;5107518;28;20051;-72
2020/12/13 11:50:20;;;;;;;27.08;15.18;;;7.60;99.90;;;;;;5110109;28;20478;-72
2020/12/13 11:52:46;;;;;;;29.42;16.10;;;7.60;99.90;;;;;;5110251;28;20410;-72
2020/12/13 11:55:13;;;;;;;26.08;14.68;;;7.70;99.90;;;;;;5109659;28;20063;-72
2020/12/13 11:57:40;;;;;;;25.80;14.73;;;7.70;99.90;;;;;;5110126;28;20047;-73
2020/12/13 12:00:17;;;;;;;27.15;15.73;;;7.70;99.90;;;;;;5106184;28;20130;-72
2020/12/13 12:02:49;;;;;;;31.55;15.27;;;7.70;99.90;;;;;;5092193;28;20104;-72
2020/12/13 12:05:16;;;;;;;27.33;14.75;;;7.70;99.90;;;;;;5110217;28;20092;-72
2020/12/13 12:07:43;;;;;;;28.40;15.50;;;7.80;99.90;;;;;;5109264;28;20036;-72
2020/12/13 12:10:10;;;;;;;28.95;17.25;;;7.80;99.90;;;;;;5109786;28;20477;-72
2020/12/13 12:12:36;;;;;;;30.73;16.55;;;7.70;99.90;;;;;;5110072;28;20043;-72
2020/12/13 12:15:03;;;;;;;29.83;16.08;;;7.70;99.90;;;;;;5109185;28;20062;-72
2020/12/13 12:17:30;;;;;;;29.02;16.38;;;7.70;99.90;;;;;;5109656;28;20054;-72
2020/12/13 12:19:56;;;;;;;29.15;16.50;;;7.60;99.90;;;;;;5110930;28;20051;-73
2020/12/13 12:22:23;;;;;;;27.95;15.38;;;7.60;99.90;;;;;;5107305;28;20044;-72
2020/12/13 12:24:50;;;;;;;29.58;15.65;;;7.60;99.90;;;;;;5110222;28;20047;-71
2020/12/13 12:27:17;;;;;;;32.08;17.02;;;7.50;99.90;;;;;;5109629;28;20055;-72
2020/12/13 12:29:44;;;;;;;33.97;16.83;;;7.60;99.90;;;;;;5109847;28;20040;-73
2020/12/13 12:32:10;;;;;;;30.40;16.48;;;7.60;99.90;;;;;;5091217;28;20478;-71
2020/12/13 12:34:37;;;;;;;30.83;16.45;;;7.60;99.90;;;;;;5110166;28;20067;-72
2020/12/13 12:37:05;;;;;;;30.75;15.18;;;7.60;99.90;;;;;;5110102;28;20043;-71
2020/12/13 12:39:31;;;;;;;32.88;15.68;;;7.50;99.90;;;;;;5091218;28;20043;-71
2020/12/13 12:41:58;;;;;;;29.75;15.90;;;7.50;99.90;;;;;;5089389;28;20047;-71
2020/12/13 12:44:25;;;;;;;31.52;15.10;;;7.50;99.90;;;;;;5110292;28;20070;-74
2020/12/13 12:46:51;;;;;;;31.33;15.30;;;7.50;99.90;;;;;;5109206;28;20039;-72
2020/12/13 12:49:18;;;;;;;33.78;16.27;;;7.50;99.90;;;;;;5109252;28;20055;-73
2020/12/13 12:51:45;;;;;;;31.58;16.23;;;7.50;99.90;;;;;;5108935;28;20079;-72
2020/12/13 12:54:11;;;;;;;26.33;13.77;;;7.50;99.90;;;;;;5109687;28;20047;-72